sensor_id;sensor_type;location;lat;lon;timestamp;pressure;altitude;pressure_sealevel;temperature;humidity
13690;BME280;6917;52.194;9.894;2023-05-24T00:00:36;101034.22;;;6.55;100.00
13690;BME280;6917;52.194;9.894;2023-05-24T00:03:01;101035.56;;;6.53;100.00
13690;BME280;6917;52.194;9.894;2023-05-24T00:05:28;101033.66;;;6.53;100.00
13690;BME280;6917;52.194;9.894;2023-05-24T00:07:55;101029.06;;;6.54;100.00
13690;BME280;6917;52.194;9.894;2023-05-24T00:10:20;101028.75;;;6.50;100.00
13690;BME280;6917;52.194;9.894;2023-05-24T00:12:45;101029.03;;;6.49;100.00
13690;BME280;6917;52.194;9.894;2023-05-24T00:15:11;101025.22;;;6.45;100.00
13690;BME280;6917;52.194;9.894;2023-05-24T00:17:36;101026.03;;;6.45;100.00
13690;BME280;6917;52.194;9.894;2023-05-24T00:20:07;101024.41;;;6.49;100.00
13690;BME280;6917;52.194;9.894;2023-05-24T00:22:34;101022.00;;;6.53;100.00
13690;BME280;6917;52.194;9.894;2023-05-24T00:25:00;101031.50;;;6.55;100.00
13690;BME280;6917;52.194;9.894;2023-05-24T00:27:26;101023.06;;;6.57;100.00
13690;BME280;6917;52.194;9.894;2023-05-24T00:29:51;101018.75;;;6.56;100.00
13690;BME280;6917;52.194;9.894;2023-05-24T00:32:16;101026.88;;;6.61;100.00
13690;BME280;6917;52.194;9.894;2023-05-24T00:34:42;101025.25;;;6.65;100.00
13690;BME280;6917;52.194;9.894;2023-05-24T00:37:07;101013.03;;;6.68;100.00
13690;BME280;6917;52.194;9.894;2023-05-24T00:39:33;101014.13;;;6.72;100.00
13690;BME280;6917;52.194;9.894;2023-05-24T00:41:58;101019.56;;;6.72;100.00
13690;BME280;6917;52.194;9.894;2023-05-24T00:44:24;101014.66;;;6.74;100.00
13690;BME280;6917;52.194;9.894;2023-05-24T00:46:49;101012.75;;;6.74;100.00
13690;BME280;6917;52.194;9.894;2023-05-24T00:49:15;101016.81;;;6.77;100.00
13690;BME280;6917;52.194;9.894;2023-05-24T00:51:40;101009.50;;;6.82;100.00
13690;BME280;6917;52.194;9.894;2023-05-24T00:54:05;101010.06;;;6.84;100.00
13690;BME280;6917;52.194;9.894;2023-05-24T00:56:31;101012.78;;;6.84;100.00
13690;BME280;6917;52.194;9.894;2023-05-24T00:58:56;101017.94;;;6.81;100.00
13690;BME280;6917;52.194;9.894;2023-05-24T01:01:22;101005.69;;;6.78;100.00
13690;BME280;6917;52.194;9.894;2023-05-24T01:03:55;101008.16;;;6.75;100.00
13690;BME280;6917;52.194;9.894;2023-05-24T01:06:21;101006.78;;;6.77;100.00
13690;BME280;6917;52.194;9.894;2023-05-24T01:09:05;100996.72;;;6.78;100.00
13690;BME280;6917;52.194;9.894;2023-05-24T01:11:47;101001.34;;;6.77;100.00
13690;BME280;6917;52.194;9.894;2023-05-24T01:14:17;100994.28;;;6.76;100.00
13690;BME280;6917;52.194;9.894;2023-05-24T01:16:52;100998.34;;;6.79;100.00
13690;BME280;6917;52.194;9.894;2023-05-24T01:19:39;100993.75;;;6.79;100.00
13690;BME280;6917;52.194;9.894;2023-05-24T01:25:03;100997.53;;;6.78;100.00
13690;BME280;6917;52.194;9.894;2023-05-24T01:27:32;100995.09;;;6.77;100.00
13690;BME280;6917;52.194;9.894;2023-05-24T01:29:59;100987.22;;;6.75;100.00
13690;BME280;6917;52.194;9.894;2023-05-24T01:32:25;100991.31;;;6.73;100.00
13690;BME280;6917;52.194;9.894;2023-05-24T01:34:51;100992.13;;;6.73;100.00
13690;BME280;6917;52.194;9.894;2023-05-24T01:37:16;100979.09;;;6.75;100.00
13690;BME280;6917;52.194;9.894;2023-05-24T01:39:41;100983.97;;;6.78;100.00
13690;BME280;6917;52.194;9.894;2023-05-24T01:42:20;100985.59;;;6.74;100.00
13690;BME280;6917;52.194;9.894;2023-05-24T01:45:06;100983.44;;;6.76;100.00
13690;BME280;6917;52.194;9.894;2023-05-24T01:50:20;100978.28;;;6.80;100.00
13690;BME280;6917;52.194;9.894;2023-05-24T01:52:48;100979.63;;;6.82;100.00
13690;BME280;6917;52.194;9.894;2023-05-24T01:55:16;100982.09;;;6.84;100.00
13690;BME280;6917;52.194;9.894;2023-05-24T01:57:43;100978.81;;;6.87;100.00
13690;BME280;6917;52.194;9.894;2023-05-24T02:00:11;100977.44;;;6.90;100.00
13690;BME280;6917;52.194;9.894;2023-05-24T02:02:38;100971.75;;;6.91;100.00
13690;BME280;6917;52.194;9.894;2023-05-24T02:05:04;100963.31;;;6.93;100.00
13690;BME280;6917;52.194;9.894;2023-05-24T02:07:29;100964.69;;;6.90;100.00
13690;BME280;6917;52.194;9.894;2023-05-24T02:09:54;100958.69;;;6.93;100.00
13690;BME280;6917;52.194;9.894;2023-05-24T02:12:20;100965.22;;;6.92;100.00
13690;BME280;6917;52.194;9.894;2023-05-24T02:14:45;100951.91;;;6.91;100.00
13690;BME280;6917;52.194;9.894;2023-05-24T02:17:10;100952.19;;;6.89;100.00
13690;BME280;6917;52.194;9.894;2023-05-24T02:19:36;100948.41;;;6.85;100.00
13690;BME280;6917;52.194;9.894;2023-05-24T02:22:01;100947.59;;;6.84;100.00
13690;BME280;6917;52.194;9.894;2023-05-24T02:24:27;100945.16;;;6.83;100.00
13690;BME280;6917;52.194;9.894;2023-05-24T02:26:53;100943.25;;;6.83;100.00
13690;BME280;6917;52.194;9.894;2023-05-24T02:29:21;100936.72;;;6.84;100.00
13690;BME280;6917;52.194;9.894;2023-05-24T02:31:47;100936.19;;;6.82;100.00
13690;BME280;6917;52.194;9.894;2023-05-24T02:34:16;100930.47;;;6.79;100.00
13690;BME280;6917;52.194;9.894;2023-05-24T02:36:41;100932.66;;;6.77;100.00
13690;BME280;6917;52.194;9.894;2023-05-24T02:39:06;100931.84;;;6.71;100.00
13690;BME280;6917;52.194;9.894;2023-05-24T02:41:32;100930.78;;;6.67;100.00
13690;BME280;6917;52.194;9.894;2023-05-24T02:43:57;100922.06;;;6.65;100.00
13690;BME280;6917;52.194;9.894;2023-05-24T02:46:22;100920.19;;;6.61;100.00
13690;BME280;6917;52.194;9.894;2023-05-24T02:48:47;100927.50;;;6.60;100.00
13690;BME280;6917;52.194;9.894;2023-05-24T02:51:13;100926.16;;;6.57;100.00
13690;BME280;6917;52.194;9.894;2023-05-24T02:53:39;100927.81;;;6.53;100.00
13690;BME280;6917;52.194;9.894;2023-05-24T02:56:07;100929.69;;;6.53;100.00
13690;BME280;6917;52.194;9.894;2023-05-24T02:58:33;100932.13;;;6.49;100.00
13690;BME280;6917;52.194;9.894;2023-05-24T03:00:58;100928.88;;;6.47;100.00
13690;BME280;6917;52.194;9.894;2023-05-24T03:03:23;100924.25;;;6.48;100.00
13690;BME280;6917;52.194;9.894;2023-05-24T03:05:48;100934.03;;;6.49;100.00
13690;BME280;6917;52.194;9.894;2023-05-24T03:08:14;100937.28;;;6.46;100.00
13690;BME280;6917;52.194;9.894;2023-05-24T03:10:39;100935.13;;;6.43;100.00
13690;BME280;6917;52.194;9.894;2023-05-24T03:13:04;100935.13;;;6.43;100.00
13690;BME280;6917;52.194;9.894;2023-05-24T03:15:30;100939.75;;;6.42;100.00
13690;BME280;6917;52.194;9.894;2023-05-24T03:17:55;100934.31;;;6.42;100.00
13690;BME280;6917;52.194;9.894;2023-05-24T03:20:21;100936.75;;;6.44;100.00
13690;BME280;6917;52.194;9.894;2023-05-24T03:22:47;100939.72;;;6.47;100.00
13690;BME280;6917;52.194;9.894;2023-05-24T03:25:12;100932.41;;;6.48;100.00
13690;BME280;6917;52.194;9.894;2023-05-24T03:27:38;100932.94;;;6.50;100.00
13690;BME280;6917;52.194;9.894;2023-05-24T03:30:04;100929.16;;;6.56;100.00
13690;BME280;6917;52.194;9.894;2023-05-24T03:32:31;100937.84;;;6.58;100.00
13690;BME280;6917;52.194;9.894;2023-05-24T03:34:56;100940.28;;;6.54;100.00
13690;BME280;6917;52.194;9.894;2023-05-24T03:37:24;100933.78;;;6.55;100.00
13690;BME280;6917;52.194;9.894;2023-05-24T03:39:50;100934.84;;;6.54;100.00
13690;BME280;6917;52.194;9.894;2023-05-24T03:42:15;100934.84;;;6.54;100.00
13690;BME280;6917;52.194;9.894;2023-05-24T03:44:40;100943.53;;;6.56;100.00
13690;BME280;6917;52.194;9.894;2023-05-24T03:47:06;100942.44;;;6.57;100.00
13690;BME280;6917;52.194;9.894;2023-05-24T03:49:31;100943.53;;;6.56;100.00
13690;BME280;6917;52.194;9.894;2023-05-24T03:51:56;100942.44;;;6.57;100.00
13690;BME280;6917;52.194;9.894;2023-05-24T03:54:22;100946.78;;;6.64;100.00
13690;BME280;6917;52.194;9.894;2023-05-24T03:56:47;100949.50;;;6.69;100.00
13690;BME280;6917;52.194;9.894;2023-05-24T03:59:12;100945.16;;;6.68;100.00
13690;BME280;6917;52.194;9.894;2023-05-24T04:01:38;100960.91;;;6.71;100.00
13690;BME280;6917;52.194;9.894;2023-05-24T04:04:03;100942.41;;;6.78;100.00
13690;BME280;6917;52.194;9.894;2023-05-24T04:06:29;100950.84;;;6.81;100.00
13690;BME280;6917;52.194;9.894;2023-05-24T04:08:55;100949.50;;;6.84;100.00
13690;BME280;6917;52.194;9.894;2023-05-24T04:11:21;100957.09;;;6.87;100.00
13690;BME280;6917;52.194;9.894;2023-05-24T04:13:47;100961.97;;;6.90;100.00
13690;BME280;6917;52.194;9.894;2023-05-24T04:16:13;100949.19;;;6.96;100.00
13690;BME280;6917;52.194;9.894;2023-05-24T04:18:38;100952.72;;;7.01;100.00
13690;BME280;6917;52.194;9.894;2023-05-24T04:21:03;100954.06;;;7.09;100.00
13690;BME280;6917;52.194;9.894;2023-05-24T04:23:29;100961.66;;;7.12;100.00
13690;BME280;6917;52.194;9.894;2023-05-24T04:25:54;100948.88;;;7.12;100.00
13690;BME280;6917;52.194;9.894;2023-05-24T04:28:19;100951.84;;;7.21;100.00
13690;BME280;6917;52.194;9.894;2023-05-24T04:30:46;100953.19;;;7.29;100.00
13690;BME280;6917;52.194;9.894;2023-05-24T04:33:12;100951.78;;;7.36;100.00
13690;BME280;6917;52.194;9.894;2023-05-24T04:35:38;100955.31;;;7.42;100.00
13690;BME280;6917;52.194;9.894;2023-05-24T04:38:04;100947.94;;;7.47;100.00
13690;BME280;6917;52.194;9.894;2023-05-24T04:40:30;100960.44;;;7.54;100.00
13690;BME280;6917;52.194;9.894;2023-05-24T04:42:55;100953.63;;;7.56;100.00
13690;BME280;6917;52.194;9.894;2023-05-24T04:45:20;100961.75;;;7.61;100.00
13690;BME280;6917;52.194;9.894;2023-05-24T04:47:46;100965.00;;;7.68;100.00
13690;BME280;6917;52.194;9.894;2023-05-24T04:50:11;100965.53;;;7.70;100.00
13690;BME280;6917;52.194;9.894;2023-05-24T04:52:36;100963.34;;;7.72;100.00
13690;BME280;6917;52.194;9.894;2023-05-24T04:55:02;100963.59;;;7.76;100.00
13690;BME280;6917;52.194;9.894;2023-05-24T04:57:28;100969.56;;;7.83;100.00
13690;BME280;6917;52.194;9.894;2023-05-24T04:59:53;100961.59;;;7.92;100.00
13690;BME280;6917;52.194;9.894;2023-05-24T05:02:18;100957.19;;;8.01;100.00
13690;BME280;6917;52.194;9.894;2023-05-24T05:04:44;100962.84;;;8.10;100.00
13690;BME280;6917;52.194;9.894;2023-05-24T05:07:09;100968.56;;;8.13;100.00
13690;BME280;6917;52.194;9.894;2023-05-24T05:09:34;100970.72;;;8.16;100.00
13690;BME280;6917;52.194;9.894;2023-05-24T05:12:01;100972.00;;;8.29;100.00
13690;BME280;6917;52.194;9.894;2023-05-24T05:14:26;100966.75;;;8.43;100.00
13690;BME280;6917;52.194;9.894;2023-05-24T05:16:53;100968.31;;;8.54;100.00
13690;BME280;6917;52.194;9.894;2023-05-24T05:19:18;100971.28;;;8.52;100.00
13690;BME280;6917;52.194;9.894;2023-05-24T05:21:43;100963.41;;;8.51;100.00
13690;BME280;6917;52.194;9.894;2023-05-24T05:24:09;100971.84;;;8.49;100.00
13690;BME280;6917;52.194;9.894;2023-05-24T05:26:34;100969.13;;;8.49;100.00
13690;BME280;6917;52.194;9.894;2023-05-24T05:28:59;100973.75;;;8.54;100.00
13690;BME280;6917;52.194;9.894;2023-05-24T05:31:25;100970.19;;;8.53;100.00
13690;BME280;6917;52.194;9.894;2023-05-24T05:33:50;100969.94;;;8.55;100.00
13690;BME280;6917;52.194;9.894;2023-05-24T05:36:16;100970.69;;;8.60;100.00
13690;BME280;6917;52.194;9.894;2023-05-24T05:38:41;100970.41;;;8.62;100.00
13690;BME280;6917;52.194;9.894;2023-05-24T05:41:07;100970.34;;;8.67;100.00
13690;BME280;6917;52.194;9.894;2023-05-24T05:43:32;100971.41;;;8.71;100.00
13690;BME280;6917;52.194;9.894;2023-05-24T05:45:57;100963.13;;;8.81;100.00
13690;BME280;6917;52.194;9.894;2023-05-24T05:48:24;100967.88;;;9.00;100.00
13690;BME280;6917;52.194;9.894;2023-05-24T05:50:50;100968.69;;;9.00;100.00
13690;BME280;6917;52.194;9.894;2023-05-24T05:53:15;100969.66;;;9.09;100.00
13690;BME280;6917;52.194;9.894;2023-05-24T05:55:41;100964.81;;;9.06;100.00
13690;BME280;6917;52.194;9.894;2023-05-24T05:58:06;100969.56;;;9.19;100.00
13690;BME280;6917;52.194;9.894;2023-05-24T06:00:31;100967.03;;;9.28;100.00
13690;BME280;6917;52.194;9.894;2023-05-24T06:02:57;100972.72;;;9.32;100.00
13690;BME280;6917;52.194;9.894;2023-05-24T06:05:22;100972.91;;;9.40;100.00
13690;BME280;6917;52.194;9.894;2023-05-24T06:07:47;100973.88;;;9.49;100.00
13690;BME280;6917;52.194;9.894;2023-05-24T06:10:13;100984.25;;;9.47;100.00
13690;BME280;6917;52.194;9.894;2023-05-24T06:12:38;100985.31;;;9.51;100.00
13690;BME280;6917;52.194;9.894;2023-05-24T06:15:08;100983.84;;;9.59;100.00
13690;BME280;6917;52.194;9.894;2023-05-24T06:17:33;100989.75;;;9.66;100.00
13690;BME280;6917;52.194;9.894;2023-05-24T06:19:59;100985.59;;;9.74;100.00
13690;BME280;6917;52.194;9.894;2023-05-24T06:22:25;100981.28;;;9.68;100.00
13690;BME280;6917;52.194;9.894;2023-05-24T06:24:52;100994.88;;;9.73;100.00
13690;BME280;6917;52.194;9.894;2023-05-24T06:27:17;100989.53;;;9.63;100.00
13690;BME280;6917;52.194;9.894;2023-05-24T06:29:42;100989.03;;;9.61;100.00
13690;BME280;6917;52.194;9.894;2023-05-24T06:32:08;100981.06;;;9.64;100.00
13690;BME280;6917;52.194;9.894;2023-05-24T06:34:33;100986.97;;;9.71;100.00
13690;BME280;6917;52.194;9.894;2023-05-24T06:36:59;100993.25;;;9.72;100.00
13690;BME280;6917;52.194;9.894;2023-05-24T06:39:24;100984.69;;;9.78;100.00
13690;BME280;6917;52.194;9.894;2023-05-24T06:41:49;100994.69;;;9.88;100.00
13690;BME280;6917;52.194;9.894;2023-05-24T06:44:15;100992.47;;;9.90;100.00
13690;BME280;6917;52.194;9.894;2023-05-24T06:46:41;100992.97;;;9.92;99.53
13690;BME280;6917;52.194;9.894;2023-05-24T06:49:06;100990.72;;;9.99;99.97
13690;BME280;6917;52.194;9.894;2023-05-24T06:51:32;100989.59;;;10.00;99.25
13690;BME280;6917;52.194;9.894;2023-05-24T06:53:58;100988.25;;;9.98;98.18
13690;BME280;6917;52.194;9.894;2023-05-24T06:56:23;100999.41;;;10.01;97.88
13690;BME280;6917;52.194;9.894;2023-05-24T06:58:49;101003.69;;;10.07;98.03
13690;BME280;6917;52.194;9.894;2023-05-24T07:01:15;101012.03;;;10.16;98.11
13690;BME280;6917;52.194;9.894;2023-05-24T07:03:40;101013.97;;;10.16;96.84
13690;BME280;6917;52.194;9.894;2023-05-24T07:06:06;101017.31;;;10.31;96.98
13690;BME280;6917;52.194;9.894;2023-05-24T07:08:34;101011.03;;;10.50;95.18
13690;BME280;6917;52.194;9.894;2023-05-24T07:10:59;101008.97;;;10.60;94.68
13690;BME280;6917;52.194;9.894;2023-05-24T07:13:24;101017.88;;;10.66;94.32
13690;BME280;6917;52.194;9.894;2023-05-24T07:15:50;101019.13;;;10.73;93.45
13690;BME280;6917;52.194;9.894;2023-05-24T07:18:15;101018.91;;;10.70;92.65
13690;BME280;6917;52.194;9.894;2023-05-24T07:20:40;101016.66;;;10.58;92.05
13690;BME280;6917;52.194;9.894;2023-05-24T07:23:06;101014.28;;;10.52;91.25
13690;BME280;6917;52.194;9.894;2023-05-24T07:25:32;101017.38;;;10.45;91.10
13690;BME280;6917;52.194;9.894;2023-05-24T07:27:59;101021.88;;;10.55;92.11
13690;BME280;6917;52.194;9.894;2023-05-24T07:30:24;101021.06;;;10.54;91.65
13690;BME280;6917;52.194;9.894;2023-05-24T07:32:50;101023.56;;;10.51;91.99
13690;BME280;6917;52.194;9.894;2023-05-24T07:35:15;101034.28;;;10.47;92.17
13690;BME280;6917;52.194;9.894;2023-05-24T07:37:41;101034.66;;;10.40;93.26
13690;BME280;6917;52.194;9.894;2023-05-24T07:40:07;101031.84;;;10.27;92.63
13690;BME280;6917;52.194;9.894;2023-05-24T07:42:36;101036.22;;;10.28;92.84
13690;BME280;6917;52.194;9.894;2023-05-24T07:45:02;101038.34;;;10.31;92.28
13690;BME280;6917;52.194;9.894;2023-05-24T07:47:27;101036.44;;;10.50;91.88
13690;BME280;6917;52.194;9.894;2023-05-24T07:49:52;101025.34;;;10.60;90.90
13690;BME280;6917;52.194;9.894;2023-05-24T07:52:18;101035.28;;;10.70;90.23
13690;BME280;6917;52.194;9.894;2023-05-24T07:54:44;101038.78;;;10.76;90.93
13690;BME280;6917;52.194;9.894;2023-05-24T07:57:09;101040.81;;;10.84;90.60
13690;BME280;6917;52.194;9.894;2023-05-24T07:59:39;101041.56;;;10.89;91.11
13690;BME280;6917;52.194;9.894;2023-05-24T08:02:08;101041.41;;;10.81;91.77
13690;BME280;6917;52.194;9.894;2023-05-24T08:04:35;101040.53;;;10.66;91.75
13690;BME280;6917;52.194;9.894;2023-05-24T08:07:01;101044.47;;;10.60;92.01
13690;BME280;6917;52.194;9.894;2023-05-24T08:09:27;101047.81;;;10.57;92.61
13690;BME280;6917;52.194;9.894;2023-05-24T08:12:00;101039.53;;;10.62;92.07
13690;BME280;6917;52.194;9.894;2023-05-24T08:14:26;101039.38;;;10.72;90.92
13690;BME280;6917;52.194;9.894;2023-05-24T08:16:51;101042.00;;;10.78;90.28
13690;BME280;6917;52.194;9.894;2023-05-24T08:19:16;101051.53;;;10.80;89.72
13690;BME280;6917;52.194;9.894;2023-05-24T08:21:41;101049.81;;;10.84;89.87
13690;BME280;6917;52.194;9.894;2023-05-24T08:24:07;101044.09;;;10.67;89.80
13690;BME280;6917;52.194;9.894;2023-05-24T08:26:33;101053.53;;;10.75;90.95
13690;BME280;6917;52.194;9.894;2023-05-24T08:28:58;101052.75;;;10.74;91.10
13690;BME280;6917;52.194;9.894;2023-05-24T08:31:23;101058.03;;;10.84;91.16
13690;BME280;6917;52.194;9.894;2023-05-24T08:33:49;101053.59;;;10.88;90.58
13690;BME280;6917;52.194;9.894;2023-05-24T08:36:16;101053.22;;;10.95;91.20
13690;BME280;6917;52.194;9.894;2023-05-24T08:38:42;101058.16;;;10.93;91.96
13690;BME280;6917;52.194;9.894;2023-05-24T08:41:10;101056.59;;;10.73;90.71
13690;BME280;6917;52.194;9.894;2023-05-24T08:43:36;101065.34;;;10.70;92.17
13690;BME280;6917;52.194;9.894;2023-05-24T08:46:03;101074.97;;;10.67;94.03
13690;BME280;6917;52.194;9.894;2023-05-24T08:48:29;101078.72;;;10.53;96.51
13690;BME280;6917;52.194;9.894;2023-05-24T08:50:56;101085.75;;;10.40;100.00
13690;BME280;6917;52.194;9.894;2023-05-24T08:53:22;101082.34;;;10.29;100.00
13690;BME280;6917;52.194;9.894;2023-05-24T08:55:49;101086.28;;;10.18;100.00
13690;BME280;6917;52.194;9.894;2023-05-24T08:58:18;101084.97;;;10.16;100.00
13690;BME280;6917;52.194;9.894;2023-05-24T09:00:43;101087.28;;;10.03;100.00
13690;BME280;6917;52.194;9.894;2023-05-24T09:03:09;101093.78;;;10.07;100.00
13690;BME280;6917;52.194;9.894;2023-05-24T09:05:36;101095.78;;;10.02;100.00
13690;BME280;6917;52.194;9.894;2023-05-24T09:08:01;101090.72;;;10.14;100.00
13690;BME280;6917;52.194;9.894;2023-05-24T09:10:28;101097.09;;;10.04;100.00
13690;BME280;6917;52.194;9.894;2023-05-24T09:12:55;101092.00;;;10.22;100.00
13690;BME280;6917;52.194;9.894;2023-05-24T09:15:21;101093.44;;;10.14;100.00
13690;BME280;6917;52.194;9.894;2023-05-24T09:17:47;101099.25;;;10.07;100.00
13690;BME280;6917;52.194;9.894;2023-05-24T09:20:12;101095.25;;;10.00;100.00
13690;BME280;6917;52.194;9.894;2023-05-24T09:22:41;101094.44;;;9.99;100.00
13690;BME280;6917;52.194;9.894;2023-05-24T09:25:07;101102.16;;;9.92;100.00
13690;BME280;6917;52.194;9.894;2023-05-24T09:27:34;101095.56;;;9.98;100.00
13690;BME280;6917;52.194;9.894;2023-05-24T09:30:00;101094.72;;;9.98;100.00
13690;BME280;6917;52.194;9.894;2023-05-24T09:32:26;101100.28;;;10.11;100.00
13690;BME280;6917;52.194;9.894;2023-05-24T09:34:55;101099.72;;;10.14;100.00
13690;BME280;6917;52.194;9.894;2023-05-24T09:37:22;101091.22;;;10.16;100.00
13690;BME280;6917;52.194;9.894;2023-05-24T09:39:49;101092.75;;;10.27;100.00
13690;BME280;6917;52.194;9.894;2023-05-24T09:42:22;101100.88;;;10.32;100.00
13690;BME280;6917;52.194;9.894;2023-05-24T09:45:03;101099.13;;;10.18;100.00
13690;BME280;6917;52.194;9.894;2023-05-24T09:47:37;101098.78;;;10.00;100.00
13690;BME280;6917;52.194;9.894;2023-05-24T09:50:05;101095.59;;;9.93;100.00
13690;BME280;6917;52.194;9.894;2023-05-24T09:52:31;101093.53;;;9.85;100.00
13690;BME280;6917;52.194;9.894;2023-05-24T09:55:00;101095.00;;;9.96;100.00
13690;BME280;6917;52.194;9.894;2023-05-24T09:57:34;101091.41;;;10.25;100.00
13690;BME280;6917;52.194;9.894;2023-05-24T10:00:04;101094.53;;;10.37;100.00
13690;BME280;6917;52.194;9.894;2023-05-24T10:02:41;101093.94;;;10.40;100.00
13690;BME280;6917;52.194;9.894;2023-05-24T10:05:09;101088.56;;;10.72;100.00
13690;BME280;6917;52.194;9.894;2023-05-24T10:07:35;101091.59;;;10.71;100.00
13690;BME280;6917;52.194;9.894;2023-05-24T10:10:03;101092.75;;;10.84;100.00
13690;BME280;6917;52.194;9.894;2023-05-24T10:12:29;101086.94;;;10.71;100.00
13690;BME280;6917;52.194;9.894;2023-05-24T10:14:55;101092.03;;;10.78;100.00
13690;BME280;6917;52.194;9.894;2023-05-24T10:17:22;101086.69;;;10.68;100.00
13690;BME280;6917;52.194;9.894;2023-05-24T10:19:51;101088.19;;;10.60;100.00
13690;BME280;6917;52.194;9.894;2023-05-24T10:22:19;101093.06;;;10.63;100.00
13690;BME280;6917;52.194;9.894;2023-05-24T10:24:49;101088.31;;;10.69;100.00
13690;BME280;6917;52.194;9.894;2023-05-24T10:27:21;101095.56;;;10.79;100.00
13690;BME280;6917;52.194;9.894;2023-05-24T10:32:41;101106.00;;;10.58;100.00
13690;BME280;6917;52.194;9.894;2023-05-24T10:35:09;101109.38;;;10.50;100.00
13690;BME280;6917;52.194;9.894;2023-05-24T10:37:36;101098.66;;;10.53;100.00
13690;BME280;6917;52.194;9.894;2023-05-24T10:40:03;101100.25;;;10.59;100.00
13690;BME280;6917;52.194;9.894;2023-05-24T10:42:30;101109.75;;;10.62;100.00
13690;BME280;6917;52.194;9.894;2023-05-24T10:44:56;101107.19;;;10.70;100.00
13690;BME280;6917;52.194;9.894;2023-05-24T10:47:24;101103.63;;;10.70;100.00
13690;BME280;6917;52.194;9.894;2023-05-24T10:49:56;101114.63;;;10.84;100.00
13690;BME280;6917;52.194;9.894;2023-05-24T10:52:33;101104.16;;;10.72;100.00
13690;BME280;6917;52.194;9.894;2023-05-24T10:55:04;101107.75;;;10.67;100.00
13690;BME280;6917;52.194;9.894;2023-05-24T10:57:31;101104.00;;;10.63;100.00
13690;BME280;6917;52.194;9.894;2023-05-24T10:59:57;101102.28;;;10.67;100.00
13690;BME280;6917;52.194;9.894;2023-05-24T11:02:42;101116.78;;;10.87;100.00
13690;BME280;6917;52.194;9.894;2023-05-24T11:05:07;101112.88;;;10.74;100.00
13690;BME280;6917;52.194;9.894;2023-05-24T11:07:40;101114.41;;;10.80;100.00
13690;BME280;6917;52.194;9.894;2023-05-24T11:10:15;101113.47;;;10.71;100.00
13690;BME280;6917;52.194;9.894;2023-05-24T11:12:41;101120.25;;;10.73;100.00
13690;BME280;6917;52.194;9.894;2023-05-24T11:15:10;101124.16;;;10.67;100.00
13690;BME280;6917;52.194;9.894;2023-05-24T11:20:43;101135.38;;;10.85;100.00
13690;BME280;6917;52.194;9.894;2023-05-24T11:23:13;101131.81;;;10.84;100.00
13690;BME280;6917;52.194;9.894;2023-05-24T11:25:39;101125.72;;;10.73;100.00
13690;BME280;6917;52.194;9.894;2023-05-24T11:28:09;101128.56;;;10.82;100.00
13690;BME280;6917;52.194;9.894;2023-05-24T11:30:41;101127.34;;;10.75;100.00
13690;BME280;6917;52.194;9.894;2023-05-24T11:33:33;101130.50;;;10.82;100.00
13690;BME280;6917;52.194;9.894;2023-05-24T11:35:58;101125.72;;;10.73;100.00
13690;BME280;6917;52.194;9.894;2023-05-24T11:38:24;101125.41;;;10.75;100.00
13690;BME280;6917;52.194;9.894;2023-05-24T11:40:50;101129.91;;;10.85;100.00
13690;BME280;6917;52.194;9.894;2023-05-24T11:43:19;101131.22;;;11.06;100.00
13690;BME280;6917;52.194;9.894;2023-05-24T11:45:48;101116.53;;;11.02;100.00
13690;BME280;6917;52.194;9.894;2023-05-24T11:48:15;101114.38;;;11.18;100.00
13690;BME280;6917;52.194;9.894;2023-05-24T11:50:42;101116.00;;;11.19;100.00
13690;BME280;6917;52.194;9.894;2023-05-24T11:53:11;101117.75;;;11.28;100.00
13690;BME280;6917;52.194;9.894;2023-05-24T11:55:38;101118.56;;;11.29;100.00
13690;BME280;6917;52.194;9.894;2023-05-24T12:00:42;101124.03;;;11.43;100.00
13690;BME280;6917;52.194;9.894;2023-05-24T12:03:08;101113.22;;;11.51;100.00
13690;BME280;6917;52.194;9.894;2023-05-24T12:05:34;101119.22;;;11.53;100.00
13690;BME280;6917;52.194;9.894;2023-05-24T12:08:06;101119.41;;;11.43;100.00
13690;BME280;6917;52.194;9.894;2023-05-24T12:10:36;101115.94;;;11.38;100.00
13690;BME280;6917;52.194;9.894;2023-05-24T12:13:02;101112.50;;;11.32;100.00
13690;BME280;6917;52.194;9.894;2023-05-24T12:15:28;101121.53;;;11.46;100.00
13690;BME280;6917;52.194;9.894;2023-05-24T12:17:55;101119.41;;;11.43;100.00
13690;BME280;6917;52.194;9.894;2023-05-24T12:20:21;101123.25;;;11.56;100.00
13690;BME280;6917;52.194;9.894;2023-05-24T12:22:55;101127.25;;;11.63;100.00
13690;BME280;6917;52.194;9.894;2023-05-24T12:25:22;101117.75;;;11.75;100.00
13690;BME280;6917;52.194;9.894;2023-05-24T12:27:54;101115.81;;;11.75;100.00
13690;BME280;6917;52.194;9.894;2023-05-24T12:30:25;101120.41;;;11.80;100.00
13690;BME280;6917;52.194;9.894;2023-05-24T12:32:51;101127.28;;;11.77;100.00
13690;BME280;6917;52.194;9.894;2023-05-24T12:35:19;101119.72;;;11.55;100.00
13690;BME280;6917;52.194;9.894;2023-05-24T12:37:45;101119.69;;;11.42;100.00
13690;BME280;6917;52.194;9.894;2023-05-24T12:40:18;101118.31;;;11.44;100.00
13690;BME280;6917;52.194;9.894;2023-05-24T12:42:48;101119.91;;;11.45;100.00
13690;BME280;6917;52.194;9.894;2023-05-24T12:45:16;101114.34;;;11.50;100.00
13690;BME280;6917;52.194;9.894;2023-05-24T12:47:48;101118.56;;;11.43;100.00
13690;BME280;6917;52.194;9.894;2023-05-24T12:50:13;101106.53;;;11.44;100.00
13690;BME280;6917;52.194;9.894;2023-05-24T12:52:41;101108.47;;;11.43;100.00
13690;BME280;6917;52.194;9.894;2023-05-24T12:55:06;101109.31;;;11.57;100.00
13690;BME280;6917;52.194;9.894;2023-05-24T12:57:32;101109.22;;;11.76;100.00
13690;BME280;6917;52.194;9.894;2023-05-24T12:59:58;101113.44;;;11.87;100.00
13690;BME280;6917;52.194;9.894;2023-05-24T13:02:23;101105.72;;;12.17;100.00
13690;BME280;6917;52.194;9.894;2023-05-24T13:04:48;101113.50;;;12.37;100.00
13690;BME280;6917;52.194;9.894;2023-05-24T13:07:15;101118.66;;;12.39;100.00
13690;BME280;6917;52.194;9.894;2023-05-24T13:09:40;101111.88;;;12.36;100.00